Buoy 52514

sailwx.info

Track history (hours):
 
Tides and Currents Weather Stations Pressure Air Temp Water Temp Dewpoint Dewpoint Depression Visibility Wind Speed Wind Dir Waves Ship Positions

Drifting buoy 52514

Last reported at 2016-Jul-23 18:00 UTC. Time now 2016-Jul-23 19:17 UTC.
Position N 26°39' E 134°02'.

Date/timePositionNaut miles runAvg speedWind from/ knotsBaromVisibWave heightAir tempDewpointWater temp
2016-Jul-23 18:00N 26°39' E 134°02'0 0.0
2016-Jul-23 17:00N 26°39' E 134°02'2 0.4
2016-Jul-23 11:00N 26°40' E 133°59'2 0.7
2016-Jul-23 08:00N 26°41' E 134°00'0 0.0
2016-Jul-23 07:00N 26°41' E 134°00'0 0.1
2016-Jul-23 05:00N 26°41' E 134°00'5 1.0
2016-Jul-23 00:00N 26°46' E 133°58'2 1.2
2016-Jul-22 22:00N 26°47' E 133°55'1 0.9
2016-Jul-22 21:00N 26°47' E 133°54'2 2.5
2016-Jul-22 20:00N 26°47' E 133°52'0 0.0
2016-Jul-22 18:00N 26°47' E 133°52'3 0.6
2016-Jul-22 13:00N 26°47' E 133°48'0 0.0
2016-Jul-22 11:00N 26°47' E 133°48'0 0.3
2016-Jul-22 10:00N 26°47' E 133°48'0 0.1
2016-Jul-22 09:00N 26°46' E 133°48'0 0.5
2016-Jul-22 08:00N 26°46' E 133°48'0 0.4
2016-Jul-22 07:00N 26°46' E 133°48'0 0.0
2016-Jul-22 05:00N 26°46' E 133°48'1 0.4
2016-Jul-22 02:00N 26°47' E 133°49'1 0.7
2016-Jul-22 00:00N 26°48' E 133°48'3 1.3
2016-Jul-21 22:00N 26°49' E 133°45'1 0.8
2016-Jul-21 21:00N 26°49' E 133°44'1 1.0
2016-Jul-21 20:00N 26°50' E 133°43'2 0.8
2016-Jul-21 18:00N 26°50' E 133°41'7 1.1
2016-Jul-21 12:00N 26°48' E 133°34'0 0.2
2016-Jul-21 11:00N 26°48' E 133°34'3 0.9
2016-Jul-21 08:00N 26°48' E 133°31'0 0.0
2016-Jul-21 07:00N 26°48' E 133°31'2 0.9
2016-Jul-21 05:00N 26°49' E 133°29'0 0.1
2016-Jul-21 04:00N 26°48' E 133°29'5 0.9
2016-Jul-20 22:00N 26°52' E 133°25'1 1.3
2016-Jul-20 21:00N 26°53' E 133°24'0 0.5
2016-Jul-20 20:00N 26°54' E 133°24'4 1.9
2016-Jul-20 18:00N 26°55' E 133°20'0 0.0
2016-Jul-20 16:00N 26°55' E 133°20'4 1.4
2016-Jul-20 13:00N 26°57' E 133°16'0 0.4
2016-Jul-20 12:00N 26°57' E 133°15'2 2.4
2016-Jul-20 11:00N 26°58' E 133°13'1 0.5
2016-Jul-20 10:00N 26°58' E 133°12'0 0.0
2016-Jul-20 09:00N 26°58' E 133°12'1 0.5
2016-Jul-20 08:00N 26°58' E 133°12'2 1.1
2016-Jul-20 06:00N 26°59' E 133°09'2 1.7
2016-Jul-20 05:00N 27°00' E 133°08'0 0.1
2016-Jul-20 04:00N 27°00' E 133°08'3 1.1
2016-Jul-20 01:00N 27°01' E 133°05'2 0.8
2016-Jul-19 22:00N 27°03' E 133°03'3 0.7
2016-Jul-19 18:00N 27°05' E 133°01'2 2.3
2016-Jul-19 17:00N 27°07' E 132°59'0 0.0
2016-Jul-19 16:00N 27°07' E 132°59'6 2.0
2016-Jul-19 13:00N 27°10' E 132°53'2 1.0
2016-Jul-19 11:00N 27°10' E 132°51'2 1.1
2016-Jul-19 09:00N 27°10' E 132°49'2 2.4
2016-Jul-19 08:00N 27°09' E 132°46'1 0.5
2016-Jul-19 06:00N 27°09' E 132°45'0 0.1
2016-Jul-19 04:00N 27°09' E 132°45'2 0.6
2016-Jul-19 01:00N 27°09' E 132°43'2 0.6
2016-Jul-18 21:00N 27°10' E 132°41'1 1.0
2016-Jul-18 20:00N 27°10' E 132°40'0 0.1
2016-Jul-18 19:00N 27°10' E 132°40'1 0.8
2016-Jul-18 18:00N 27°10' E 132°39'0 0.1
2016-Jul-18 17:00N 27°10' E 132°39'2 0.6
2016-Jul-18 13:00N 27°10' E 132°37'0 0.1
2016-Jul-18 12:00N 27°10' E 132°37'1 0.5
2016-Jul-18 11:00N 27°10' E 132°36'1 0.6
2016-Jul-18 10:00N 27°10' E 132°35'0 0.5
2016-Jul-18 09:00N 27°10' E 132°35'0 0.4
2016-Jul-18 08:00N 27°10' E 132°34'2 1.8
2016-Jul-18 07:00N 27°10' E 132°33'0 0.2
2016-Jul-18 06:00N 27°10' E 132°32'2 0.8
2016-Jul-18 04:00N 27°08' E 132°31'4 0.9
2016-Jul-18 00:00N 27°05' E 132°32'1 0.3
2016-Jul-17 20:00N 27°04' E 132°33'0 0.5
2016-Jul-17 19:00N 27°04' E 132°33'0 0.2
2016-Jul-17 18:00N 27°04' E 132°32'0 0.1
2016-Jul-17 17:00N 27°04' E 132°32'1 0.2
2016-Jul-17 13:00N 27°04' E 132°32'0 0.2
2016-Jul-17 12:00N 27°04' E 132°32'2 0.5
2016-Jul-17 09:00N 27°04' E 132°30'0 0.4
2016-Jul-17 08:00N 27°03' E 132°29'1 0.5
2016-Jul-17 07:00N 27°03' E 132°29'0 0.0
2016-Jul-17 06:00N 27°03' E 132°29'1 1.0
2016-Jul-17 05:00N 27°03' E 132°28'0 0.0
2016-Jul-17 04:00N 27°03' E 132°28'2 0.9
2016-Jul-17 02:00N 27°02' E 132°26'1 0.7
2016-Jul-17 00:00N 27°01' E 132°26'1 0.7
2016-Jul-16 22:00N 26°59' E 132°25'1 0.7
2016-Jul-16 21:00N 26°59' E 132°25'0 0.3
2016-Jul-16 20:00N 26°58' E 132°24'1 0.5
2016-Jul-16 19:00N 26°58' E 132°24'1 0.5
2016-Jul-16 17:00N 26°57' E 132°24'2 0.4
2016-Jul-16 12:00N 26°55' E 132°25'0 0.3
2016-Jul-16 11:00N 26°55' E 132°24'0 0.0
2016-Jul-16 10:00N 26°55' E 132°24'1 0.4
2016-Jul-16 08:00N 26°55' E 132°24'1 0.6
2016-Jul-16 07:00N 26°54' E 132°23'1 0.3
2016-Jul-16 05:00N 26°54' E 132°22'0 0.0
2016-Jul-16 04:00N 26°54' E 132°22'5 0.8
2016-Jul-15 22:00N 26°50' E 132°19'1 0.7
2016-Jul-15 21:00N 26°49' E 132°19'1 0.8
2016-Jul-15 20:00N 26°49' E 132°19'0 0.0
2016-Jul-15 19:00N 26°49' E 132°19'1 0.5
2016-Jul-15 17:00N 26°48' E 132°19'3 0.7
2016-Jul-15 13:00N 26°45' E 132°18'0 0.2
2016-Jul-15 12:00N 26°45' E 132°18'1 0.8
2016-Jul-15 11:00N 26°44' E 132°18'1 1.0
2016-Jul-15 10:00N 26°44' E 132°17'1 0.7
2016-Jul-15 09:00N 26°43' E 132°17'2 0.9
2016-Jul-15 07:00N 26°41' E 132°16'0 0.0
2016-Jul-15 05:00N 26°41' E 132°16'0 0.0
2016-Jul-15 04:00N 26°41' E 132°16'2 0.5
2016-Jul-15 01:00N 26°40' E 132°16'2 0.7
2016-Jul-14 22:00N 26°38' E 132°14'3 1.4
2016-Jul-14 20:00N 26°36' E 132°13'2 1.9
2016-Jul-14 19:00N 26°37' E 132°14'2 1.9
2016-Jul-14 18:00N 26°36' E 132°13'0 0.0
2016-Jul-14 17:00N 26°36' E 132°13'4 0.9
2016-Jul-14 13:00N 26°32' E 132°11'1 0.4
2016-Jul-14 11:00N 26°32' E 132°11'0 0.4
2016-Jul-14 10:00N 26°31' E 132°11'1 1.1
2016-Jul-14 09:00N 26°30' E 132°10'0 0.0
2016-Jul-14 08:00N 26°30' E 132°10'0 0.4
2016-Jul-14 07:00N 26°30' E 132°10'1 0.7
2016-Jul-14 05:00N 26°29' E 132°09'4 0.9
2016-Jul-14 01:00N 26°27' E 132°06'1 1.1
2016-Jul-14 00:00N 26°26' E 132°05'1 1.2
2016-Jul-13 23:00N 26°25' E 132°04'1 0.8
2016-Jul-13 22:00N 26°24' E 132°03'1 0.8
2016-Jul-13 21:00N 26°24' E 132°03'7 7.3
2016-Jul-13 20:00N 26°17' E 131°60'0 0.0
2016-Jul-13 18:00N 26°17' E 131°60'  
Track history (hours):
 
Tides and Currents Weather Stations Pressure Air Temp Water Temp Dewpoint Dewpoint Depression Visibility Wind Speed Wind Dir Waves Ship Positions

Drifting buoy 52514

Last reported at 2016-Jul-23 18:00 UTC. Time now 2016-Jul-23 19:17 UTC.
Position N 26°39' E 134°02'.

Date/timePositionNaut miles runAvg speedWind from/ knotsBaromVisibWave heightAir tempDewpointWater temp
2016-Jul-23 18:00N 26°39' E 134°02'0 0.0
2016-Jul-23 17:00N 26°39' E 134°02'2 0.4
2016-Jul-23 11:00N 26°40' E 133°59'2 0.7
2016-Jul-23 08:00N 26°41' E 134°00'0 0.0
2016-Jul-23 07:00N 26°41' E 134°00'0 0.1
2016-Jul-23 05:00N 26°41' E 134°00'5 1.0
2016-Jul-23 00:00N 26°46' E 133°58'2 1.2
2016-Jul-22 22:00N 26°47' E 133°55'1 0.9
2016-Jul-22 21:00N 26°47' E 133°54'2 2.5
2016-Jul-22 20:00N 26°47' E 133°52'0 0.0
2016-Jul-22 18:00N 26°47' E 133°52'3 0.6
2016-Jul-22 13:00N 26°47' E 133°48'0 0.0
2016-Jul-22 11:00N 26°47' E 133°48'0 0.3
2016-Jul-22 10:00N 26°47' E 133°48'0 0.1
2016-Jul-22 09:00N 26°46' E 133°48'0 0.5
2016-Jul-22 08:00N 26°46' E 133°48'0 0.4
2016-Jul-22 07:00N 26°46' E 133°48'0 0.0
2016-Jul-22 05:00N 26°46' E 133°48'1 0.4
2016-Jul-22 02:00N 26°47' E 133°49'1 0.7
2016-Jul-22 00:00N 26°48' E 133°48'3 1.3
2016-Jul-21 22:00N 26°49' E 133°45'1 0.8
2016-Jul-21 21:00N 26°49' E 133°44'1 1.0
2016-Jul-21 20:00N 26°50' E 133°43'2 0.8
2016-Jul-21 18:00N 26°50' E 133°41'7 1.1
2016-Jul-21 12:00N 26°48' E 133°34'0 0.2
2016-Jul-21 11:00N 26°48' E 133°34'3 0.9
2016-Jul-21 08:00N 26°48' E 133°31'0 0.0
2016-Jul-21 07:00N 26°48' E 133°31'2 0.9
2016-Jul-21 05:00N 26°49' E 133°29'0 0.1
2016-Jul-21 04:00N 26°48' E 133°29'5 0.9
2016-Jul-20 22:00N 26°52' E 133°25'1 1.3
2016-Jul-20 21:00N 26°53' E 133°24'0 0.5
2016-Jul-20 20:00N 26°54' E 133°24'4 1.9
2016-Jul-20 18:00N 26°55' E 133°20'0 0.0
2016-Jul-20 16:00N 26°55' E 133°20'4 1.4
2016-Jul-20 13:00N 26°57' E 133°16'0 0.4
2016-Jul-20 12:00N 26°57' E 133°15'2 2.4
2016-Jul-20 11:00N 26°58' E 133°13'1 0.5
2016-Jul-20 10:00N 26°58' E 133°12'0 0.0
2016-Jul-20 09:00N 26°58' E 133°12'1 0.5
2016-Jul-20 08:00N 26°58' E 133°12'2 1.1
2016-Jul-20 06:00N 26°59' E 133°09'2 1.7
2016-Jul-20 05:00N 27°00' E 133°08'0 0.1
2016-Jul-20 04:00N 27°00' E 133°08'3 1.1
2016-Jul-20 01:00N 27°01' E 133°05'2 0.8
2016-Jul-19 22:00N 27°03' E 133°03'3 0.7
2016-Jul-19 18:00N 27°05' E 133°01'2 2.3
2016-Jul-19 17:00N 27°07' E 132°59'0 0.0
2016-Jul-19 16:00N 27°07' E 132°59'6 2.0
2016-Jul-19 13:00N 27°10' E 132°53'2 1.0
2016-Jul-19 11:00N 27°10' E 132°51'2 1.1
2016-Jul-19 09:00N 27°10' E 132°49'2 2.4
2016-Jul-19 08:00N 27°09' E 132°46'1 0.5
2016-Jul-19 06:00N 27°09' E 132°45'0 0.1
2016-Jul-19 04:00N 27°09' E 132°45'2 0.6
2016-Jul-19 01:00N 27°09' E 132°43'2 0.6
2016-Jul-18 21:00N 27°10' E 132°41'1 1.0
2016-Jul-18 20:00N 27°10' E 132°40'0 0.1
2016-Jul-18 19:00N 27°10' E 132°40'1 0.8
2016-Jul-18 18:00N 27°10' E 132°39'0 0.1
2016-Jul-18 17:00N 27°10' E 132°39'2 0.6
2016-Jul-18 13:00N 27°10' E 132°37'0 0.1
2016-Jul-18 12:00N 27°10' E 132°37'1 0.5
2016-Jul-18 11:00N 27°10' E 132°36'1 0.6
2016-Jul-18 10:00N 27°10' E 132°35'0 0.5
2016-Jul-18 09:00N 27°10' E 132°35'0 0.4
2016-Jul-18 08:00N 27°10' E 132°34'2 1.8
2016-Jul-18 07:00N 27°10' E 132°33'0 0.2
2016-Jul-18 06:00N 27°10' E 132°32'2 0.8
2016-Jul-18 04:00N 27°08' E 132°31'4 0.9
2016-Jul-18 00:00N 27°05' E 132°32'1 0.3
2016-Jul-17 20:00N 27°04' E 132°33'0 0.5
2016-Jul-17 19:00N 27°04' E 132°33'0 0.2
2016-Jul-17 18:00N 27°04' E 132°32'0 0.1
2016-Jul-17 17:00N 27°04' E 132°32'1 0.2
2016-Jul-17 13:00N 27°04' E 132°32'0 0.2
2016-Jul-17 12:00N 27°04' E 132°32'2 0.5
2016-Jul-17 09:00N 27°04' E 132°30'0 0.4
2016-Jul-17 08:00N 27°03' E 132°29'1 0.5
2016-Jul-17 07:00N 27°03' E 132°29'0 0.0
2016-Jul-17 06:00N 27°03' E 132°29'1 1.0
2016-Jul-17 05:00N 27°03' E 132°28'0 0.0
2016-Jul-17 04:00N 27°03' E 132°28'2 0.9
2016-Jul-17 02:00N 27°02' E 132°26'1 0.7
2016-Jul-17 00:00N 27°01' E 132°26'1 0.7
2016-Jul-16 22:00N 26°59' E 132°25'1 0.7
2016-Jul-16 21:00N 26°59' E 132°25'0 0.3
2016-Jul-16 20:00N 26°58' E 132°24'1 0.5
2016-Jul-16 19:00N 26°58' E 132°24'1 0.5
2016-Jul-16 17:00N 26°57' E 132°24'2 0.4
2016-Jul-16 12:00N 26°55' E 132°25'0 0.3
2016-Jul-16 11:00N 26°55' E 132°24'0 0.0
2016-Jul-16 10:00N 26°55' E 132°24'1 0.4
2016-Jul-16 08:00N 26°55' E 132°24'1 0.6
2016-Jul-16 07:00N 26°54' E 132°23'1 0.3
2016-Jul-16 05:00N 26°54' E 132°22'0 0.0
2016-Jul-16 04:00N 26°54' E 132°22'5 0.8
2016-Jul-15 22:00N 26°50' E 132°19'1 0.7
2016-Jul-15 21:00N 26°49' E 132°19'1 0.8
2016-Jul-15 20:00N 26°49' E 132°19'0 0.0
2016-Jul-15 19:00N 26°49' E 132°19'1 0.5
2016-Jul-15 17:00N 26°48' E 132°19'3 0.7
2016-Jul-15 13:00N 26°45' E 132°18'0 0.2
2016-Jul-15 12:00N 26°45' E 132°18'1 0.8
2016-Jul-15 11:00N 26°44' E 132°18'1 1.0
2016-Jul-15 10:00N 26°44' E 132°17'1 0.7
2016-Jul-15 09:00N 26°43' E 132°17'2 0.9
2016-Jul-15 07:00N 26°41' E 132°16'0 0.0
2016-Jul-15 05:00N 26°41' E 132°16'0 0.0
2016-Jul-15 04:00N 26°41' E 132°16'2 0.5
2016-Jul-15 01:00N 26°40' E 132°16'2 0.7
2016-Jul-14 22:00N 26°38' E 132°14'3 1.4
2016-Jul-14 20:00N 26°36' E 132°13'2 1.9
2016-Jul-14 19:00N 26°37' E 132°14'2 1.9
2016-Jul-14 18:00N 26°36' E 132°13'0 0.0
2016-Jul-14 17:00N 26°36' E 132°13'4 0.9
2016-Jul-14 13:00N 26°32' E 132°11'1 0.4
2016-Jul-14 11:00N 26°32' E 132°11'0 0.4
2016-Jul-14 10:00N 26°31' E 132°11'1 1.1
2016-Jul-14 09:00N 26°30' E 132°10'0 0.0
2016-Jul-14 08:00N 26°30' E 132°10'0 0.4
2016-Jul-14 07:00N 26°30' E 132°10'1 0.7
2016-Jul-14 05:00N 26°29' E 132°09'4 0.9
2016-Jul-14 01:00N 26°27' E 132°06'1 1.1
2016-Jul-14 00:00N 26°26' E 132°05'1 1.2
2016-Jul-13 23:00N 26°25' E 132°04'1 0.8
2016-Jul-13 22:00N 26°24' E 132°03'1 0.8
2016-Jul-13 21:00N 26°24' E 132°03'7 7.3
2016-Jul-13 20:00N 26°17' E 131°60'0 0.0
2016-Jul-13 18:00N 26°17' E 131°60'  

Dump ship's entire track history